createdAt,value
2023-05-10T00:00:22.790Z,77.82
2023-05-10T00:01:22.795Z,77.41
2023-05-10T00:02:22.828Z,77.41
2023-05-10T00:03:22.850Z,77.62
2023-05-10T00:04:22.804Z,77.37
2023-05-10T00:05:23.740Z,77.64
2023-05-10T00:06:22.709Z,77.79
2023-05-10T00:07:22.724Z,77.64
2023-05-10T00:08:22.698Z,77.66
2023-05-10T00:09:22.744Z,77.79
2023-05-10T00:10:22.661Z,77.88
2023-05-10T00:11:23.352Z,77.68
2023-05-10T00:12:22.644Z,77.68
2023-05-10T00:13:22.730Z,77.62
2023-05-10T00:14:22.597Z,77.33
2023-05-10T00:15:22.742Z,77.47
2023-05-10T00:16:22.592Z,77.48
2023-05-10T00:17:22.632Z,77.41
2023-05-10T00:18:22.547Z,77.56
2023-05-10T00:19:22.619Z,77.82
2023-05-10T00:20:22.489Z,77.85
2023-05-10T00:21:22.518Z,77.76
2023-05-10T00:22:22.484Z,77.79
2023-05-10T00:23:22.522Z,77.66
2023-05-10T00:24:22.478Z,77.88
2023-05-10T00:25:22.582Z,78.04
2023-05-10T00:26:22.441Z,77.97
2023-05-10T00:27:22.478Z,77.97
2023-05-10T00:28:22.410Z,78.07
2023-05-10T00:29:22.472Z,78.18
2023-05-10T00:30:22.405Z,78.23
2023-05-10T00:31:22.453Z,77.97
2023-05-10T00:32:22.410Z,78.02
2023-05-10T00:33:22.393Z,78.11
2023-05-10T00:34:22.344Z,77.89
2023-05-10T00:35:22.409Z,78.18
2023-05-10T00:36:22.318Z,78.17
2023-05-10T00:37:22.312Z,78.39
2023-05-10T00:38:22.267Z,78.48
2023-05-10T00:39:22.348Z,78.34
2023-05-10T00:40:22.246Z,78.64
2023-05-10T00:41:22.253Z,78.44
2023-05-10T00:42:22.240Z,78.54
2023-05-10T00:43:22.267Z,78.59
2023-05-10T00:44:22.178Z,78.77
2023-05-10T00:45:22.277Z,78.74
2023-05-10T00:46:22.200Z,78.81
2023-05-10T00:47:22.227Z,78.65
2023-05-10T00:48:22.159Z,78.90
2023-05-10T00:49:22.235Z,79.11
2023-05-10T00:50:22.148Z,78.92
2023-05-10T00:51:22.122Z,79.11
2023-05-10T00:52:22.090Z,79.14
2023-05-10T00:53:22.160Z,79.07
2023-05-10T00:54:22.123Z,79.29
2023-05-10T00:55:22.147Z,79.09
2023-05-10T00:56:22.033Z,78.99
2023-05-10T00:57:22.040Z,78.92
2023-05-10T00:58:22.047Z,79.04
2023-05-10T00:59:22.071Z,79.18
2023-05-10T01:00:22.031Z,79.06
2023-05-10T01:01:22.155Z,79.08
2023-05-10T01:02:21.968Z,79.29
2023-05-10T01:03:22.074Z,79.31
2023-05-10T01:04:21.946Z,79.75
2023-05-10T01:05:22.202Z,79.62
2023-05-10T01:06:21.934Z,79.53
2023-05-10T01:07:22.034Z,79.60
2023-05-10T01:08:21.908Z,79.74
2023-05-10T01:09:21.993Z,79.73
2023-05-10T01:10:21.885Z,79.38
2023-05-10T01:11:22.939Z,79.38
2023-05-10T01:12:21.919Z,79.50
2023-05-10T01:13:22.110Z,79.32
2023-05-10T01:14:21.812Z,79.60
2023-05-10T01:15:21.971Z,79.60
2023-05-10T01:16:21.841Z,79.82
2023-05-10T01:17:21.856Z,79.45
2023-05-10T01:18:21.765Z,79.47
2023-05-10T01:19:21.856Z,79.45
2023-05-10T01:20:21.736Z,79.23
2023-05-10T01:21:21.944Z,79.29
2023-05-10T01:22:21.716Z,79.17
2023-05-10T01:23:21.832Z,79.31
2023-05-10T01:24:21.735Z,79.26
2023-05-10T01:25:21.765Z,79.26
2023-05-10T01:26:21.685Z,79.56
2023-05-10T01:27:21.702Z,79.60
2023-05-10T01:28:21.624Z,79.61
2023-05-10T01:29:21.700Z,80.23
2023-05-10T01:30:22.343Z,80.09
2023-05-10T01:31:21.695Z,79.91
2023-05-10T01:32:21.588Z,79.79
2023-05-10T01:33:21.627Z,79.86
2023-05-10T01:34:21.545Z,80.11
2023-05-10T01:35:21.666Z,80.08
2023-05-10T01:36:21.568Z,80.07
2023-05-10T01:37:21.618Z,79.69
2023-05-10T01:38:21.501Z,79.50
2023-05-10T01:39:21.570Z,79.64
2023-05-10T01:40:21.463Z,79.88
2023-05-10T01:41:21.575Z,80.26
2023-05-10T01:42:21.455Z,80.18
2023-05-10T01:43:21.492Z,80.02
2023-05-10T01:44:21.478Z,80.22
2023-05-10T01:45:21.484Z,80.33
2023-05-10T01:46:21.400Z,80.15
2023-05-10T01:47:21.420Z,79.81
2023-05-10T01:48:21.372Z,79.98
2023-05-10T01:49:21.454Z,79.75
2023-05-10T01:50:21.340Z,79.80
2023-05-10T01:51:21.423Z,79.82
2023-05-10T01:52:21.859Z,79.48
2023-05-10T01:53:21.421Z,79.53
2023-05-10T01:54:21.311Z,79.23
2023-05-10T01:55:21.403Z,79.05
2023-05-10T01:56:21.247Z,78.77
2023-05-10T01:57:21.273Z,78.69
2023-05-10T01:58:21.252Z,78.97
2023-05-10T01:59:21.301Z,79.07
2023-05-10T02:00:21.217Z,78.69
2023-05-10T02:01:21.350Z,78.95
2023-05-10T02:02:21.188Z,79.00
2023-05-10T02:03:21.254Z,79.03
2023-05-10T02:04:21.139Z,79.19
2023-05-10T02:05:21.225Z,79.22
2023-05-10T02:06:21.137Z,78.98
2023-05-10T02:07:21.132Z,79.15
2023-05-10T02:08:21.138Z,78.89
2023-05-10T02:09:21.155Z,79.08
2023-05-10T02:10:21.095Z,79.10
2023-05-10T02:11:21.165Z,79.34
2023-05-10T02:12:21.100Z,79.49
2023-05-10T02:13:21.144Z,79.39
2023-05-10T02:14:21.031Z,79.64
2023-05-10T02:15:21.105Z,80.04
2023-05-10T02:16:21.066Z,79.84
2023-05-10T02:17:21.003Z,79.42
2023-05-10T02:18:21.036Z,79.45
2023-05-10T02:19:21.013Z,79.66
2023-05-10T02:20:20.944Z,79.87
2023-05-10T02:21:21.049Z,80.37
2023-05-10T02:22:20.957Z,80.25
2023-05-10T02:23:20.992Z,80.06
2023-05-10T02:24:20.912Z,79.95
2023-05-10T02:25:20.969Z,79.86
2023-05-10T02:26:20.891Z,79.88
2023-05-10T02:27:20.906Z,79.89
2023-05-10T02:28:20.846Z,79.61
2023-05-10T02:29:20.974Z,79.44
2023-05-10T02:30:20.963Z,79.27
2023-05-10T02:31:21.869Z,79.34
2023-05-10T02:32:21.002Z,79.68
2023-05-10T02:33:21.877Z,79.50
2023-05-10T02:34:20.792Z,79.55
2023-05-10T02:35:20.823Z,79.79
2023-05-10T02:36:20.769Z,79.64
2023-05-10T02:37:20.950Z,79.65
2023-05-10T02:38:20.745Z,79.52
2023-05-10T02:39:20.751Z,79.86
2023-05-10T02:40:20.728Z,79.86
2023-05-10T02:41:20.778Z,79.89
2023-05-10T02:42:20.705Z,79.97
2023-05-10T02:43:20.698Z,79.73
2023-05-10T02:44:20.650Z,79.80
2023-05-10T02:45:20.730Z,79.81
2023-05-10T02:46:20.665Z,79.79
2023-05-10T02:47:20.739Z,79.99
2023-05-10T02:48:20.640Z,79.88
2023-05-10T02:49:20.629Z,79.55
2023-05-10T02:50:20.568Z,79.10
2023-05-10T02:51:20.639Z,78.85
2023-05-10T02:52:20.584Z,78.40
2023-05-10T02:53:20.564Z,78.35
2023-05-10T02:54:20.595Z,78.32
2023-05-10T02:55:20.577Z,78.00
2023-05-10T02:56:20.475Z,78.13
2023-05-10T02:57:20.575Z,77.76
2023-05-10T02:58:20.477Z,77.64
2023-05-10T02:59:20.489Z,77.80
2023-05-10T03:00:20.456Z,77.68
2023-05-10T03:01:20.570Z,77.79
2023-05-10T03:02:20.454Z,77.97
2023-05-10T03:03:20.419Z,77.43
2023-05-10T03:04:20.478Z,77.74
2023-05-10T03:05:20.463Z,77.84
2023-05-10T03:06:20.419Z,77.40
2023-05-10T03:07:20.468Z,77.37
2023-05-10T03:08:20.321Z,77.39
2023-05-10T03:09:20.378Z,77.25
2023-05-10T03:10:20.320Z,77.35
2023-05-10T03:11:20.414Z,77.61
2023-05-10T03:12:20.293Z,77.57
2023-05-10T03:13:20.336Z,77.33
2023-05-10T03:14:20.253Z,77.16
2023-05-10T03:15:20.327Z,77.44
2023-05-10T03:16:20.290Z,77.37
2023-05-10T03:17:21.271Z,77.37
2023-05-10T03:18:20.221Z,77.55
2023-05-10T03:19:20.255Z,77.23
2023-05-10T03:20:20.251Z,77.30
2023-05-10T03:21:20.266Z,77.39
2023-05-10T03:22:20.318Z,77.35
2023-05-10T03:23:20.156Z,77.34
2023-05-10T03:24:20.167Z,77.39
2023-05-10T03:25:20.180Z,77.59
2023-05-10T03:26:20.087Z,78.19
2023-05-10T03:27:20.200Z,78.00
2023-05-10T03:28:20.107Z,77.81
2023-05-10T03:29:20.099Z,77.82
2023-05-10T03:30:25.981Z,77.90
2023-05-10T03:31:21.082Z,78.06
2023-05-10T03:32:41.185Z,78.12
2023-05-10T03:33:20.026Z,78.21
2023-05-10T03:34:20.048Z,77.95
2023-05-10T03:35:19.975Z,78.06
2023-05-10T03:36:20.006Z,78.14
2023-05-10T03:37:19.960Z,78.13
2023-05-10T03:38:19.958Z,78.20
2023-05-10T03:39:19.923Z,78.31
2023-05-10T03:40:21.026Z,78.46
2023-05-10T03:41:19.921Z,78.14
2023-05-10T03:42:19.950Z,77.99
2023-05-10T03:43:19.870Z,77.93
2023-05-10T03:44:19.947Z,77.60
2023-05-10T03:45:19.864Z,77.74
2023-05-10T03:46:19.958Z,77.78
2023-05-10T03:47:19.846Z,77.54
2023-05-10T03:48:24.113Z,77.51
2023-05-10T03:49:19.824Z,77.47
2023-05-10T03:50:20.062Z,77.58
2023-05-10T03:51:19.809Z,77.89
2023-05-10T03:52:19.851Z,77.98
2023-05-10T03:53:19.987Z,77.85
2023-05-10T03:54:19.849Z,77.60
2023-05-10T03:55:19.766Z,77.67
2023-05-10T03:56:19.780Z,77.69
2023-05-10T03:57:19.699Z,77.83
2023-05-10T03:58:19.720Z,77.63
2023-05-10T03:59:19.665Z,77.83
2023-05-10T04:00:19.889Z,77.67
2023-05-10T04:01:19.667Z,77.78
2023-05-10T04:02:19.754Z,77.62
2023-05-10T04:03:19.711Z,77.36
2023-05-10T04:04:20.047Z,77.44
2023-05-10T04:05:19.599Z,77.71
2023-05-10T04:06:19.802Z,77.50
2023-05-10T04:07:19.586Z,77.57
2023-05-10T04:08:19.553Z,77.58
2023-05-10T04:09:19.572Z,77.42
2023-05-10T04:10:19.709Z,77.43
2023-05-10T04:11:19.491Z,77.48
2023-05-10T04:12:19.560Z,77.08
2023-05-10T04:13:19.485Z,77.33
2023-05-10T04:14:19.553Z,77.35
2023-05-10T04:15:19.441Z,77.13
2023-05-10T04:16:19.576Z,77.24
2023-05-10T04:17:19.472Z,77.10
2023-05-10T04:18:19.533Z,76.82
2023-05-10T04:19:19.411Z,76.96
2023-05-10T04:20:19.577Z,77.11
2023-05-10T04:21:19.377Z,77.05
2023-05-10T04:22:19.458Z,76.78
2023-05-10T04:23:19.376Z,76.74
2023-05-10T04:24:19.476Z,76.64
2023-05-10T04:25:19.385Z,76.24
2023-05-10T04:26:20.414Z,76.20
2023-05-10T04:27:19.310Z,75.82
2023-05-10T04:28:19.320Z,75.81
2023-05-10T04:29:19.268Z,75.56
2023-05-10T04:30:19.367Z,75.91
2023-05-10T04:31:19.258Z,75.79
2023-05-10T04:32:19.338Z,75.61
2023-05-10T04:33:19.200Z,75.55
2023-05-10T04:34:19.234Z,75.05
2023-05-10T04:35:19.172Z,75.26
2023-05-10T04:36:19.329Z,75.12
2023-05-10T04:37:19.178Z,75.20
2023-05-10T04:38:19.204Z,75.50
2023-05-10T04:39:19.134Z,75.41
2023-05-10T04:40:19.356Z,76.52
2023-05-10T04:41:19.117Z,76.36
2023-05-10T04:42:19.176Z,75.29
2023-05-10T04:43:19.074Z,75.15
2023-05-10T04:44:19.172Z,74.90
2023-05-10T04:45:19.041Z,74.86
2023-05-10T04:46:19.188Z,75.09
2023-05-10T04:47:19.037Z,75.04
2023-05-10T04:48:19.106Z,74.69
2023-05-10T04:49:19.006Z,74.86
2023-05-10T04:50:19.130Z,75.41
2023-05-10T04:51:18.966Z,74.96
2023-05-10T04:52:19.071Z,74.83
2023-05-10T04:53:18.955Z,74.73
2023-05-10T04:54:19.032Z,74.55
2023-05-10T04:55:18.914Z,74.81
2023-05-10T04:56:18.987Z,74.32
2023-05-10T04:57:18.878Z,74.68
2023-05-10T04:58:18.935Z,74.32
2023-05-10T04:59:18.839Z,73.75
2023-05-10T05:00:19.058Z,73.94
2023-05-10T05:01:18.872Z,74.42
2023-05-10T05:02:18.932Z,74.63
2023-05-10T05:03:18.938Z,74.48
2023-05-10T05:04:18.842Z,74.33
2023-05-10T05:05:18.783Z,74.16
2023-05-10T05:06:18.804Z,74.28
2023-05-10T05:07:18.786Z,73.91
2023-05-10T05:08:18.762Z,74.30
2023-05-10T05:09:18.726Z,74.90
2023-05-10T05:10:18.987Z,74.49
2023-05-10T05:11:18.697Z,74.33
2023-05-10T05:12:19.783Z,74.91
2023-05-10T05:13:18.706Z,74.88
2023-05-10T05:14:18.721Z,74.66
2023-05-10T05:15:18.653Z,75.17
2023-05-10T05:16:18.793Z,74.39
2023-05-10T05:17:18.631Z,74.53
2023-05-10T05:18:18.713Z,74.38
2023-05-10T05:19:18.610Z,73.83
2023-05-10T05:20:18.825Z,73.71
2023-05-10T05:21:18.591Z,73.69
2023-05-10T05:22:19.615Z,73.88
2023-05-10T05:23:18.560Z,74.03
2023-05-10T05:24:18.647Z,74.15
2023-05-10T05:25:18.507Z,73.60
2023-05-10T05:26:18.797Z,73.00
2023-05-10T05:27:18.757Z,73.00
2023-05-10T05:28:19.518Z,72.53
2023-05-10T05:29:18.473Z,72.44
2023-05-10T05:30:18.807Z,72.71
2023-05-10T05:31:18.458Z,72.70
2023-05-10T05:32:18.427Z,72.60
2023-05-10T05:33:18.464Z,72.66
2023-05-10T05:34:18.481Z,72.58
2023-05-10T05:35:18.624Z,72.94
2023-05-10T05:36:18.453Z,72.76
2023-05-10T05:37:18.388Z,73.05
2023-05-10T05:38:18.376Z,72.57
2023-05-10T05:39:18.327Z,72.41
2023-05-10T05:40:18.484Z,72.26
2023-05-10T05:41:18.326Z,72.21
2023-05-10T05:42:18.366Z,71.88
2023-05-10T05:43:18.275Z,71.84
2023-05-10T05:44:18.373Z,72.22
2023-05-10T05:45:18.604Z,72.11
2023-05-10T05:46:18.477Z,71.72
2023-05-10T05:47:18.250Z,71.90
2023-05-10T05:48:18.304Z,72.19
2023-05-10T05:49:18.271Z,72.26
2023-05-10T05:50:18.317Z,71.13
2023-05-10T05:51:18.181Z,71.43
2023-05-10T05:52:18.437Z,71.49
2023-05-10T05:53:18.226Z,71.39
2023-05-10T05:54:18.247Z,70.79
2023-05-10T05:55:18.363Z,70.39
2023-05-10T05:56:18.224Z,70.96
2023-05-10T05:57:18.145Z,70.61
2023-05-10T05:58:20.215Z,70.01
2023-05-10T05:59:18.157Z,70.31
2023-05-10T06:00:18.214Z,69.97
2023-05-10T06:01:18.065Z,69.91
2023-05-10T06:02:18.086Z,70.25
2023-05-10T06:03:18.107Z,69.38
2023-05-10T06:04:18.299Z,69.34
2023-05-10T06:05:18.236Z,68.87
2023-05-10T06:06:18.035Z,68.59
2023-05-10T06:07:17.979Z,68.56
2023-05-10T06:08:18.022Z,68.77
2023-05-10T06:09:17.942Z,68.42
2023-05-10T06:10:18.000Z,67.92
2023-05-10T06:11:17.937Z,67.82
2023-05-10T06:12:17.980Z,68.07
2023-05-10T06:13:17.934Z,68.69
2023-05-10T06:14:17.932Z,68.41
2023-05-10T06:15:18.044Z,68.44
2023-05-10T06:16:17.981Z,68.61
2023-05-10T06:17:17.834Z,68.21
2023-05-10T06:18:21.085Z,68.44
2023-05-10T06:19:17.827Z,68.59
2023-05-10T06:20:17.860Z,68.83
2023-05-10T06:21:17.791Z,69.31
2023-05-10T06:22:17.786Z,69.19
2023-05-10T06:23:17.767Z,68.64
2023-05-10T06:24:17.853Z,68.91
2023-05-10T06:25:17.896Z,68.88
2023-05-10T06:26:17.809Z,68.78
2023-05-10T06:27:17.719Z,68.60
2023-05-10T06:28:17.735Z,68.67
2023-05-10T06:29:17.685Z,67.75
2023-05-10T06:30:17.815Z,68.18
2023-05-10T06:31:17.694Z,67.63
2023-05-10T06:32:18.692Z,67.46
2023-05-10T06:33:17.637Z,67.50
2023-05-10T06:34:18.123Z,66.57
2023-05-10T06:35:17.895Z,66.88
2023-05-10T06:36:17.614Z,66.22
2023-05-10T06:37:18.645Z,65.63
2023-05-10T06:38:17.581Z,66.37
2023-05-10T06:39:17.655Z,66.47
2023-05-10T06:40:17.689Z,66.37
2023-05-10T06:41:17.560Z,66.59
2023-05-10T06:42:17.662Z,64.51
2023-05-10T06:43:17.606Z,64.24
2023-05-10T06:44:17.577Z,62.27
2023-05-10T06:45:17.801Z,62.08
2023-05-10T06:46:17.870Z,62.49
2023-05-10T06:47:18.106Z,63.12
2023-05-10T06:48:17.587Z,63.51
2023-05-10T06:49:17.387Z,63.57
2023-05-10T06:50:17.471Z,63.33
2023-05-10T06:51:17.382Z,62.77
2023-05-10T06:52:17.419Z,63.62
2023-05-10T06:53:17.363Z,64.11
2023-05-10T06:54:17.444Z,64.50
2023-05-10T06:55:17.561Z,64.50
2023-05-10T06:56:17.407Z,65.13
2023-05-10T06:57:30.621Z,65.16
2023-05-10T06:58:18.270Z,65.80
2023-05-10T06:59:17.381Z,64.64
2023-05-10T07:00:17.502Z,65.17
2023-05-10T07:01:17.538Z,64.73
2023-05-10T07:02:17.297Z,65.37
2023-05-10T07:03:17.326Z,65.66
2023-05-10T07:04:17.283Z,65.97
2023-05-10T07:05:17.605Z,66.14
2023-05-10T07:06:29.335Z,65.82
2023-05-10T07:07:18.154Z,65.52
2023-05-10T07:08:17.189Z,65.64
2023-05-10T07:09:17.144Z,65.53
2023-05-10T07:10:17.200Z,65.82
2023-05-10T07:11:17.118Z,66.18
2023-05-10T07:12:17.236Z,66.44
2023-05-10T07:13:17.215Z,66.27
2023-05-10T07:14:17.123Z,65.74
2023-05-10T07:15:17.515Z,65.75
2023-05-10T07:16:17.217Z,65.38
2023-05-10T07:17:17.030Z,64.50
2023-05-10T07:18:17.139Z,64.07
2023-05-10T07:19:17.008Z,64.65
2023-05-10T07:20:17.065Z,64.11
2023-05-10T07:21:17.003Z,64.73
2023-05-10T07:22:16.996Z,64.06
2023-05-10T07:23:16.961Z,64.21
2023-05-10T07:24:17.081Z,64.45
2023-05-10T07:25:17.043Z,64.15
2023-05-10T07:26:17.014Z,63.72
2023-05-10T07:27:16.886Z,63.49
2023-05-10T07:28:16.995Z,63.50
2023-05-10T07:29:16.854Z,62.65
2023-05-10T07:30:17.156Z,62.81
2023-05-10T07:31:16.832Z,62.79
2023-05-10T07:32:16.899Z,62.29
2023-05-10T07:33:16.855Z,62.55
2023-05-10T07:34:16.897Z,62.02
2023-05-10T07:35:17.008Z,62.25
2023-05-10T07:36:16.895Z,62.88
2023-05-10T07:37:16.838Z,63.44
2023-05-10T07:38:16.819Z,63.46
2023-05-10T07:39:24.680Z,63.63
2023-05-10T07:40:17.723Z,63.35
2023-05-10T07:41:16.876Z,63.43
2023-05-10T07:42:16.978Z,62.78
2023-05-10T07:43:17.785Z,62.59
2023-05-10T07:44:16.655Z,61.65
2023-05-10T07:45:16.998Z,61.67
2023-05-10T07:46:16.705Z,61.61
2023-05-10T07:47:17.674Z,60.82
2023-05-10T07:48:16.877Z,60.32
2023-05-10T07:49:16.793Z,60.58
2023-05-10T07:50:16.597Z,60.12
2023-05-10T07:51:16.675Z,59.79
2023-05-10T07:52:16.565Z,60.35
2023-05-10T07:53:16.623Z,61.08
2023-05-10T07:54:16.618Z,61.36
2023-05-10T07:55:16.984Z,62.13
2023-05-10T07:56:16.517Z,62.30
2023-05-10T07:57:17.609Z,61.13
2023-05-10T07:58:16.489Z,61.48
2023-05-10T07:59:16.580Z,59.47
2023-05-10T08:00:16.692Z,59.92
2023-05-10T08:01:16.556Z,60.88
2023-05-10T08:02:16.469Z,58.29
2023-05-10T08:03:16.655Z,58.85
2023-05-10T08:04:16.572Z,59.59
2023-05-10T08:05:16.761Z,59.83
2023-05-10T08:06:16.405Z,58.51
2023-05-10T08:07:16.395Z,59.13
2023-05-10T08:08:16.361Z,60.04
2023-05-10T08:09:16.399Z,59.57
2023-05-10T08:10:16.307Z,60.49
2023-05-10T08:11:17.344Z,59.60
2023-05-10T08:12:16.310Z,59.76
2023-05-10T08:13:16.364Z,58.53
2023-05-10T08:14:16.331Z,58.83
2023-05-10T08:15:16.558Z,58.49
2023-05-10T08:16:16.280Z,59.49
2023-05-10T08:17:17.682Z,58.69
2023-05-10T08:18:16.298Z,59.43
2023-05-10T08:19:16.338Z,57.88
2023-05-10T08:20:16.195Z,58.03
2023-05-10T08:21:16.184Z,58.67
2023-05-10T08:22:16.541Z,58.87
2023-05-10T08:23:16.199Z,57.84
2023-05-10T08:24:16.164Z,58.12
2023-05-10T08:25:16.416Z,58.53
2023-05-10T08:26:16.108Z,56.94
2023-05-10T08:27:16.140Z,56.94
2023-05-10T08:28:16.106Z,57.21
2023-05-10T08:29:17.187Z,58.41
2023-05-10T08:30:16.088Z,59.88
2023-05-10T08:31:17.129Z,56.74
2023-05-10T08:32:16.236Z,56.46
2023-05-10T08:33:16.098Z,57.74
2023-05-10T08:34:16.011Z,58.84
2023-05-10T08:35:16.287Z,56.58
2023-05-10T08:36:15.993Z,57.10
2023-05-10T08:37:16.012Z,57.32
2023-05-10T08:38:15.960Z,57.77
2023-05-10T08:39:26.786Z,58.93
2023-05-10T08:40:16.963Z,58.11
2023-05-10T08:41:16.039Z,58.75
2023-05-10T08:42:15.939Z,54.95
2023-05-10T08:43:16.006Z,54.87
2023-05-10T08:44:15.870Z,54.73
2023-05-10T08:45:16.205Z,55.30
2023-05-10T08:46:15.867Z,56.14
2023-05-10T08:47:15.908Z,57.99
2023-05-10T08:48:15.861Z,57.68
2023-05-10T08:49:15.868Z,56.58
2023-05-10T08:50:15.792Z,56.62
2023-05-10T08:51:15.960Z,55.88
2023-05-10T08:52:15.766Z,55.62
2023-05-10T08:53:16.829Z,56.22
2023-05-10T08:54:15.802Z,57.83
2023-05-10T08:55:16.161Z,57.63
2023-05-10T08:56:15.722Z,58.19
2023-05-10T08:57:15.726Z,57.40
2023-05-10T08:58:15.726Z,55.45
2023-05-10T08:59:15.739Z,55.48
2023-05-10T09:00:15.709Z,56.47
2023-05-10T09:01:15.692Z,56.40
2023-05-10T09:02:18.089Z,56.02
2023-05-10T09:03:15.677Z,57.10
2023-05-10T09:04:15.698Z,56.41
2023-05-10T09:05:15.972Z,54.89
2023-05-10T09:06:15.656Z,55.95
2023-05-10T09:07:15.749Z,56.90
2023-05-10T09:08:15.551Z,55.52
2023-05-10T09:09:15.633Z,55.11
2023-05-10T09:10:15.532Z,55.51
2023-05-10T09:11:15.530Z,55.87
2023-05-10T09:12:15.673Z,56.32
2023-05-10T09:13:15.546Z,56.20
2023-05-10T09:14:15.506Z,56.68
2023-05-10T09:15:15.866Z,56.78
2023-05-10T09:16:21.880Z,56.62
2023-05-10T09:17:16.566Z,56.74
2023-05-10T09:18:15.506Z,57.58
2023-05-10T09:19:15.437Z,58.09
2023-05-10T09:20:15.509Z,58.18
2023-05-10T09:21:15.438Z,57.15
2023-05-10T09:22:15.520Z,56.56
2023-05-10T09:23:15.388Z,54.63
2023-05-10T09:24:15.419Z,54.42
2023-05-10T09:25:15.494Z,54.85
2023-05-10T09:26:15.361Z,55.87
2023-05-10T09:27:15.291Z,55.53
2023-05-10T09:28:15.355Z,55.55
2023-05-10T09:29:16.696Z,55.90
2023-05-10T09:30:15.362Z,56.13
2023-05-10T09:31:15.311Z,56.21
2023-05-10T09:32:15.281Z,55.66
2023-05-10T09:33:15.267Z,57.10
2023-05-10T09:34:15.350Z,57.65
2023-05-10T09:35:15.375Z,56.38
2023-05-10T09:36:16.244Z,56.99
2023-05-10T09:37:15.180Z,57.78
2023-05-10T09:38:15.220Z,58.52
2023-05-10T09:39:15.119Z,58.04
2023-05-10T09:40:15.157Z,54.82
2023-05-10T09:41:15.186Z,55.74
2023-05-10T09:42:15.200Z,56.47
2023-05-10T09:43:15.071Z,55.08
2023-05-10T09:44:15.192Z,55.85
2023-05-10T09:45:15.606Z,54.65
2023-05-10T09:46:15.083Z,55.37
2023-05-10T09:47:15.037Z,55.22
2023-05-10T09:48:15.117Z,55.25
2023-05-10T09:49:15.147Z,55.87
2023-05-10T09:50:15.152Z,57.52
2023-05-10T09:51:15.176Z,54.67
2023-05-10T09:52:15.152Z,55.09
2023-05-10T09:53:15.361Z,56.40
2023-05-10T09:54:15.030Z,56.54
2023-05-10T09:55:15.315Z,56.94
2023-05-10T09:56:15.019Z,56.72
2023-05-10T09:57:15.279Z,56.02
2023-05-10T09:58:15.384Z,54.97
2023-05-10T09:59:15.022Z,55.65
2023-05-10T10:00:14.974Z,55.34
2023-05-10T10:01:14.851Z,54.82
2023-05-10T10:02:16.109Z,55.67
2023-05-10T10:03:14.951Z,54.23
2023-05-10T10:04:14.940Z,55.56
2023-05-10T10:05:14.979Z,56.16
2023-05-10T10:06:26.542Z,54.83
2023-05-10T10:07:15.975Z,55.83
2023-05-10T10:08:14.934Z,55.04
2023-05-10T10:09:14.869Z,53.06
2023-05-10T10:10:14.838Z,54.79
2023-05-10T10:11:14.744Z,55.26
2023-05-10T10:12:14.762Z,54.51
2023-05-10T10:13:14.710Z,52.51
2023-05-10T10:14:14.791Z,52.68
2023-05-10T10:15:16.573Z,53.38
2023-05-10T10:16:14.766Z,54.87
2023-05-10T10:17:14.643Z,53.32
2023-05-10T10:18:14.727Z,52.93
2023-05-10T10:19:14.722Z,52.81
2023-05-10T10:20:14.899Z,53.94
2023-05-10T10:21:14.583Z,54.23
2023-05-10T10:22:14.618Z,54.13
2023-05-10T10:23:17.154Z,55.56
2023-05-10T10:24:14.993Z,55.70
2023-05-10T10:25:15.060Z,54.47
2023-05-10T10:26:14.797Z,52.83
2023-05-10T10:27:14.817Z,54.37
2023-05-10T10:28:15.000Z,54.83
2023-05-10T10:29:14.615Z,52.38
2023-05-10T10:30:14.820Z,54.12
2023-05-10T10:31:14.502Z,54.49
2023-05-10T10:32:15.066Z,53.57
2023-05-10T10:33:27.132Z,51.70
2023-05-10T10:34:15.921Z,52.08
2023-05-10T10:35:14.989Z,52.52
2023-05-10T10:36:14.383Z,51.32
2023-05-10T10:37:14.403Z,54.33
2023-05-10T10:38:14.559Z,54.62
2023-05-10T10:39:14.497Z,53.09
2023-05-10T10:40:14.332Z,50.38
2023-05-10T10:41:14.380Z,51.99
2023-05-10T10:42:14.324Z,51.67
2023-05-10T10:43:14.381Z,50.90
2023-05-10T10:44:14.646Z,49.08
2023-05-10T10:45:15.211Z,49.61
2023-05-10T10:46:14.609Z,50.42
2023-05-10T10:47:14.524Z,51.93
2023-05-10T10:48:14.304Z,50.78
2023-05-10T10:49:14.302Z,51.74
2023-05-10T10:50:14.239Z,53.06
2023-05-10T10:51:14.294Z,52.09
2023-05-10T10:52:14.198Z,50.09
2023-05-10T10:53:14.401Z,49.84
2023-05-10T10:54:15.286Z,51.75
2023-05-10T10:55:14.535Z,50.27
2023-05-10T10:56:14.133Z,52.76
2023-05-10T10:57:14.334Z,53.47
2023-05-10T10:58:14.175Z,51.40
2023-05-10T10:59:14.233Z,53.20
2023-05-10T11:00:14.088Z,51.48
2023-05-10T11:01:14.351Z,49.92
2023-05-10T11:02:14.049Z,51.49
2023-05-10T11:03:14.196Z,53.17
2023-05-10T11:04:14.158Z,50.27
2023-05-10T11:05:14.646Z,51.16
2023-05-10T11:06:14.197Z,50.47
2023-05-10T11:07:14.579Z,48.24
2023-05-10T11:08:14.109Z,52.34
2023-05-10T11:09:15.359Z,50.28
2023-05-10T11:10:14.031Z,52.34
2023-05-10T11:11:15.046Z,50.02
2023-05-10T11:12:14.054Z,50.95
2023-05-10T11:13:14.014Z,51.12
2023-05-10T11:14:13.989Z,48.84
2023-05-10T11:15:15.149Z,48.31
2023-05-10T11:16:13.952Z,48.71
2023-05-10T11:17:13.980Z,48.71
2023-05-10T11:18:13.805Z,48.42
2023-05-10T11:19:14.039Z,48.83
2023-05-10T11:20:13.829Z,48.29
2023-05-10T11:21:13.843Z,50.27
2023-05-10T11:22:13.806Z,49.64
2023-05-10T11:23:13.863Z,51.98
2023-05-10T11:24:13.738Z,50.32
2023-05-10T11:25:13.740Z,49.09
2023-05-10T11:26:13.698Z,47.78
2023-05-10T11:27:13.755Z,47.99
2023-05-10T11:28:13.777Z,48.36
2023-05-10T11:29:13.765Z,51.20
2023-05-10T11:30:13.786Z,47.91
2023-05-10T11:31:13.729Z,47.92
2023-05-10T11:32:13.619Z,47.65
2023-05-10T11:33:13.696Z,47.30
2023-05-10T11:34:13.666Z,46.53
2023-05-10T11:35:13.605Z,46.91
2023-05-10T11:36:13.590Z,47.60
2023-05-10T11:37:13.768Z,47.62
2023-05-10T11:38:13.627Z,47.83
2023-05-10T11:39:13.728Z,50.60
2023-05-10T11:40:13.613Z,49.40
2023-05-10T11:41:13.792Z,48.35
2023-05-10T11:42:13.669Z,51.51
2023-05-10T11:43:13.576Z,48.60
2023-05-10T11:44:13.483Z,48.11
2023-05-10T11:45:13.508Z,47.69
2023-05-10T11:46:13.495Z,50.33
2023-05-10T11:47:13.505Z,51.07
2023-05-10T11:48:13.461Z,47.90
2023-05-10T11:49:13.516Z,48.33
2023-05-10T11:50:13.479Z,47.75
2023-05-10T11:51:13.498Z,47.15
2023-05-10T11:52:13.390Z,47.74
2023-05-10T11:53:13.455Z,50.59
2023-05-10T11:54:13.366Z,49.66
2023-05-10T11:55:13.370Z,47.35
2023-05-10T11:56:13.357Z,49.84
2023-05-10T11:57:14.340Z,49.79
2023-05-10T11:58:13.315Z,46.67
2023-05-10T11:59:13.336Z,47.08
2023-05-10T12:00:13.325Z,48.04
2023-05-10T12:01:13.377Z,47.04
2023-05-10T12:02:13.248Z,46.99
2023-05-10T12:03:13.383Z,48.36
2023-05-10T12:04:13.439Z,45.48
2023-05-10T12:05:13.405Z,46.03
2023-05-10T12:06:13.209Z,45.10
2023-05-10T12:07:13.295Z,46.40
2023-05-10T12:08:13.167Z,43.95
2023-05-10T12:09:15.271Z,43.88
2023-05-10T12:10:13.285Z,46.68
2023-05-10T12:11:13.321Z,43.24
2023-05-10T12:12:13.172Z,44.15
2023-05-10T12:13:13.191Z,44.82
2023-05-10T12:14:13.100Z,45.59
2023-05-10T12:15:13.215Z,46.90
2023-05-10T12:16:13.322Z,48.33
2023-05-10T12:17:13.150Z,47.22
2023-05-10T12:18:13.051Z,48.91
2023-05-10T12:19:13.255Z,49.35
2023-05-10T12:20:13.070Z,48.33
2023-05-10T12:21:15.232Z,45.84
2023-05-10T12:22:13.000Z,47.76
2023-05-10T12:23:13.986Z,45.55
2023-05-10T12:24:12.966Z,46.80
2023-05-10T12:25:13.102Z,45.88
2023-05-10T12:26:12.957Z,48.70
2023-05-10T12:27:14.059Z,47.75
2023-05-10T12:28:13.033Z,48.78
2023-05-10T12:29:13.101Z,44.27
2023-05-10T12:30:12.925Z,46.81
2023-05-10T12:31:35.081Z,44.82
2023-05-10T12:32:12.991Z,48.42
2023-05-10T12:33:14.118Z,50.22
2023-05-10T12:34:12.883Z,45.76
2023-05-10T12:35:12.985Z,48.43
2023-05-10T12:36:12.805Z,48.14
2023-05-10T12:37:12.917Z,46.98
2023-05-10T12:38:12.786Z,46.83
2023-05-10T12:39:14.000Z,48.51
2023-05-10T12:40:12.849Z,48.56
2023-05-10T12:41:12.833Z,46.56
2023-05-10T12:42:12.844Z,47.84
2023-05-10T12:43:12.829Z,49.51
2023-05-10T12:44:12.744Z,49.28
2023-05-10T12:45:13.787Z,45.50
2023-05-10T12:46:12.788Z,47.92
2023-05-10T12:47:12.763Z,48.81
2023-05-10T12:48:12.700Z,44.95
2023-05-10T12:49:12.835Z,45.97
2023-05-10T12:50:12.682Z,47.41
2023-05-10T12:51:12.720Z,47.69
2023-05-10T12:52:12.627Z,45.26